Mason City Municipal Airport
KMCW : now visible

Airfield :











YOU CAN JOIN US ON...

 
LOGIN :

Register | Disclaimer

   EN    FR    IT 

 









Legend :    VFR   Marginal VFR   IFR   Intensive IFR   Very Intensive IFR
Visi :
Ceiling :
>= 8 km
>= 3000ft
5 to 8 km
1000 to 3000 ft
1500m to 5 km
500 to 1000 ft
800 to 1500m
200 to 500 ft
< 800m
< 200 ft
Symbols :   Thunderstorms  Fog  Heavy snow  Heavy precipitations  Wind > 20 kt






- Airport Elevation : 1213 ft


KMCW - Mason City Municipal

CURRENT METAR :
  • 241653Z AUTO 09016G24KT 10SM FEW120 17/02 A3019 RMK AO2 SLP218 T01720022

EXPIRED METARs :
  • 241553Z AUTO 11015KT 10SM BKN110 16/02 A3020 RMK AO2 SLP223 T01560022
  • 241453Z AUTO 11008KT 10SM OVC110 13/02 A3020 RMK AO2 SLP226 T01280022 58002

TAF KMCW
Valid from the 24 at 18:00 until the 25 at 18:00 UTC


241727Z 2418/2518 09016G24KT P6SM FEW120
FM250000 10010G18KT 6SM -SHRA BR OVC050
FM250400 08011G19KT 5SM -SHRA BR OVC020
FM250800 07015G25KT 5SM SHRA BR OVC008
KZMP FIR / North America



MET'MAP, your aeronautical weather chart ! - Copyright ORBIFLY December 2007 - Disclaimer

ORBIFLY MET'MAP TEAM :

Programming & Development : Alexandra Zaïnal
Original concept : Baudouin d'Aumeries
Technical & hardware support : Manuel Goepfert
Assistance : Marc-Olivier Méhu

Contact : metmap@orbifly.com




SOURCES & CREDITS :

   NOAA       Earth
Advisory